createdAt,value
2022-11-14T00:02:11.263Z,98202.00
2022-11-14T00:04:57.168Z,98193.88
2022-11-14T00:07:43.132Z,98189.16
2022-11-14T00:10:29.194Z,98183.97
2022-11-14T00:13:16.042Z,98184.50
2022-11-14T00:16:01.648Z,98183.41
2022-11-14T00:18:47.732Z,98180.75
2022-11-14T00:21:34.064Z,98190.06
2022-11-14T00:24:20.576Z,98187.69
2022-11-14T00:27:06.574Z,98187.06
2022-11-14T00:29:52.793Z,98184.97
2022-11-14T00:32:38.587Z,98186.31
2022-11-14T00:35:24.080Z,98180.22
2022-11-14T00:38:09.763Z,98188.78
2022-11-14T00:40:55.948Z,98169.34
2022-11-14T00:43:42.048Z,98169.19
2022-11-14T00:46:28.077Z,98178.34
2022-11-14T00:49:14.070Z,98177.19
2022-11-14T00:51:59.756Z,98174.69
2022-11-14T00:54:45.158Z,98169.81
2022-11-14T00:57:30.949Z,98168.44
2022-11-14T01:00:16.615Z,98171.72
2022-11-14T01:03:02.610Z,98177.19
2022-11-14T01:05:51.522Z,98161.53
2022-11-14T01:08:37.512Z,98166.88
2022-11-14T01:11:23.850Z,98174.63
2022-11-14T01:14:09.823Z,98162.97
2022-11-14T01:16:55.799Z,98161.59
2022-11-14T01:19:41.480Z,98161.22
2022-11-14T01:22:27.491Z,98164.38
2022-11-14T01:25:13.607Z,98174.69
2022-11-14T01:27:59.749Z,98176.34
2022-11-14T01:30:45.887Z,98175.81
2022-11-14T01:33:32.106Z,98169.44
2022-11-14T01:36:18.588Z,98160.69
2022-11-14T01:39:04.657Z,98155.84
2022-11-14T01:41:50.477Z,98162.28
2022-11-14T01:44:54.938Z,98155.41
2022-11-14T01:47:40.703Z,98150.63
2022-11-14T01:50:28.504Z,98153.53
2022-11-14T01:53:14.456Z,98151.75
2022-11-14T01:56:05.610Z,98148.53
2022-11-14T01:59:01.526Z,98138.78
2022-11-14T02:01:50.221Z,98139.16
2022-11-14T02:04:40.257Z,98136.38
2022-11-14T02:07:29.468Z,98134.75
2022-11-14T02:10:21.189Z,98142.28
2022-11-14T02:13:07.499Z,98135.34
2022-11-14T02:15:53.780Z,98139.53
2022-11-14T02:18:42.493Z,98136.38
2022-11-14T02:21:27.943Z,98141.19
2022-11-14T02:24:14.339Z,98138.81
2022-11-14T02:27:00.613Z,98136.56
2022-11-14T02:29:46.543Z,98130.00
2022-11-14T02:32:45.106Z,98124.81
2022-11-14T02:35:37.988Z,98116.75
2022-11-14T02:38:23.888Z,98116.66
2022-11-14T02:41:09.733Z,98118.53
2022-11-14T02:43:55.421Z,98121.25
2022-11-14T02:46:41.544Z,98119.06
2022-11-14T02:49:27.580Z,98121.34
2022-11-14T02:52:13.515Z,98121.88
2022-11-14T02:54:59.621Z,98139.56
2022-11-14T02:57:45.101Z,98138.44
2022-11-14T03:00:31.113Z,98142.91
2022-11-14T03:03:16.909Z,98141.94
2022-11-14T03:06:06.872Z,98130.72
2022-11-14T03:08:52.927Z,98129.78
2022-11-14T03:11:39.534Z,98106.84
2022-11-14T03:14:25.180Z,98105.13
2022-11-14T03:17:11.447Z,98104.56
2022-11-14T03:19:58.003Z,98110.94
2022-11-14T03:22:43.398Z,98113.06
2022-11-14T03:25:29.251Z,98103.91
2022-11-14T03:28:14.867Z,98103.94
2022-11-14T03:31:00.221Z,98096.66
2022-11-14T03:33:45.611Z,98093.81
2022-11-14T03:36:31.856Z,98086.00
2022-11-14T03:39:18.069Z,98087.63
2022-11-14T03:42:03.912Z,98082.88
2022-11-14T03:44:49.757Z,98087.25
2022-11-14T03:47:35.549Z,98084.34
2022-11-14T03:50:21.295Z,98086.44
2022-11-14T03:53:07.635Z,98094.38
2022-11-14T03:55:53.385Z,98102.19
2022-11-14T03:58:38.981Z,98109.03
2022-11-14T04:01:24.827Z,98100.81
2022-11-14T04:04:12.715Z,98108.31
2022-11-14T04:06:58.459Z,98109.41
2022-11-14T04:09:47.070Z,98098.81
2022-11-14T04:12:33.061Z,98096.47
2022-11-14T04:15:20.028Z,98092.34
2022-11-14T04:18:06.087Z,98090.19
2022-11-14T04:20:52.470Z,98098.81
2022-11-14T04:23:37.889Z,98089.91
2022-11-14T04:26:23.379Z,98082.91
2022-11-14T04:29:08.715Z,98079.63
2022-11-14T04:31:54.205Z,98082.81
2022-11-14T04:34:39.777Z,98090.69
2022-11-14T04:37:25.470Z,98091.28
2022-11-14T04:40:11.767Z,98083.44
2022-11-14T04:42:57.086Z,98065.84
2022-11-14T04:45:42.895Z,98052.63
2022-11-14T04:48:28.762Z,98048.75
2022-11-14T04:51:14.411Z,98043.44
2022-11-14T04:53:59.833Z,98043.97
2022-11-14T04:56:45.011Z,98041.16
2022-11-14T04:59:30.463Z,98037.34
2022-11-14T05:02:15.796Z,98038.69
2022-11-14T05:05:01.778Z,98032.69
2022-11-14T05:07:47.066Z,98026.25
2022-11-14T05:10:32.580Z,98041.81
2022-11-14T05:13:18.076Z,98046.56
2022-11-14T05:16:03.403Z,98036.56
2022-11-14T05:18:49.056Z,98039.88
2022-11-14T05:21:34.860Z,98035.53
2022-11-14T05:24:20.632Z,98023.56
2022-11-14T05:27:06.804Z,98021.50
2022-11-14T05:29:52.404Z,98031.03
2022-11-14T05:32:37.866Z,98040.13
2022-11-14T05:35:23.345Z,98050.03
2022-11-14T05:38:09.058Z,98042.13
2022-11-14T05:40:54.666Z,98047.31
2022-11-14T05:43:40.952Z,98039.84
2022-11-14T05:46:26.493Z,98038.19
2022-11-14T05:49:12.090Z,98030.47
2022-11-14T05:51:57.410Z,98028.81
2022-11-14T05:54:42.753Z,98020.56
2022-11-14T05:57:28.632Z,98021.53
2022-11-14T06:00:15.072Z,98030.56
2022-11-14T06:03:00.706Z,98028.72
2022-11-14T06:05:45.943Z,98039.69
2022-11-14T06:08:32.897Z,98024.69
2022-11-14T06:11:20.930Z,98041.81
2022-11-14T06:14:10.593Z,98038.63
2022-11-14T06:16:57.144Z,98038.16
2022-11-14T06:19:42.847Z,98030.81
2022-11-14T06:22:28.244Z,98025.00
2022-11-14T06:25:13.806Z,98044.75
2022-11-14T06:27:59.878Z,98043.81
2022-11-14T06:30:45.319Z,98034.44
2022-11-14T06:33:35.564Z,98037.34
2022-11-14T06:36:21.451Z,98032.97
2022-11-14T06:39:07.469Z,98044.06
2022-11-14T06:41:53.440Z,98041.53
2022-11-14T06:44:39.536Z,98056.59
2022-11-14T06:47:25.106Z,98050.75
2022-11-14T06:50:13.555Z,98053.72
2022-11-14T06:52:59.469Z,98057.53
2022-11-14T06:55:57.291Z,98046.06
2022-11-14T06:58:46.314Z,98052.16
2022-11-14T07:01:32.026Z,98068.09
2022-11-14T07:04:17.942Z,98044.78
2022-11-14T07:07:03.754Z,98055.28
2022-11-14T07:09:49.695Z,98060.38
2022-11-14T07:12:35.826Z,98054.81
2022-11-14T07:15:21.451Z,98061.03
2022-11-14T07:18:10.410Z,98062.38
2022-11-14T07:21:04.359Z,98063.00
2022-11-14T07:23:50.808Z,98059.31
2022-11-14T07:26:36.915Z,98049.19
2022-11-14T07:29:22.858Z,98054.22
2022-11-14T07:32:08.840Z,98054.38
2022-11-14T07:35:00.792Z,98065.75
2022-11-14T07:37:50.580Z,98080.16
2022-11-14T07:40:36.948Z,98077.00
2022-11-14T07:43:22.826Z,98079.34
2022-11-14T07:46:11.192Z,98082.56
2022-11-14T07:48:56.887Z,98086.69
2022-11-14T07:51:42.461Z,98087.53
2022-11-14T07:54:28.331Z,98089.41
2022-11-14T07:57:14.377Z,98091.34
2022-11-14T08:00:00.497Z,98086.72
2022-11-14T08:02:47.216Z,98081.41
2022-11-14T08:05:32.720Z,98095.28
2022-11-14T08:08:18.542Z,98107.28
2022-11-14T08:11:04.689Z,98089.72
2022-11-14T08:13:50.732Z,98100.28
2022-11-14T08:16:36.954Z,98105.84
2022-11-14T08:19:22.512Z,98098.28
2022-11-14T08:22:08.611Z,98101.09
2022-11-14T08:24:54.611Z,98101.00
2022-11-14T08:27:39.953Z,98102.28
2022-11-14T08:30:26.300Z,98101.56
2022-11-14T08:33:12.702Z,98102.72
2022-11-14T08:36:07.147Z,98103.09
2022-11-14T08:38:57.495Z,98100.56
2022-11-14T08:41:46.359Z,98109.19
2022-11-14T08:44:31.949Z,98113.19
2022-11-14T08:47:17.656Z,98111.50
2022-11-14T08:50:03.546Z,98103.66
2022-11-14T08:52:52.352Z,98110.16
2022-11-14T08:55:38.073Z,98111.84
2022-11-14T08:58:23.960Z,98119.91
2022-11-14T09:01:10.542Z,98117.16
2022-11-14T09:03:59.856Z,98125.88
2022-11-14T09:06:46.408Z,98127.34
2022-11-14T09:09:32.677Z,98126.88
2022-11-14T09:12:18.513Z,98127.16
2022-11-14T09:15:04.269Z,98139.72
2022-11-14T09:17:54.341Z,98136.81
2022-11-14T09:20:40.545Z,98133.91
2022-11-14T09:23:26.067Z,98149.44
2022-11-14T09:26:12.490Z,98139.38
2022-11-14T09:28:57.934Z,98157.78
2022-11-14T09:31:43.982Z,98145.03
2022-11-14T09:34:29.835Z,98137.91
2022-11-14T09:37:16.134Z,98137.28
2022-11-14T09:40:03.624Z,98135.28
2022-11-14T09:42:59.517Z,98133.38
2022-11-14T09:45:51.111Z,98147.19
2022-11-14T09:48:36.827Z,98153.38
2022-11-14T09:51:25.700Z,98147.59
2022-11-14T09:54:27.139Z,98153.06
2022-11-14T09:57:19.785Z,98136.84
2022-11-14T10:00:21.075Z,98128.88
2022-11-14T10:03:52.536Z,98113.66
2022-11-14T10:07:08.767Z,98114.59
2022-11-14T10:10:26.537Z,98106.94
2022-11-14T10:13:31.514Z,98105.47
2022-11-14T10:16:42.279Z,98103.41
2022-11-14T10:20:16.449Z,98097.50
2022-11-14T10:23:27.909Z,98095.78
2022-11-14T10:26:32.448Z,98091.13
2022-11-14T10:29:33.325Z,98088.09
2022-11-14T10:32:35.989Z,98094.44
2022-11-14T10:35:27.904Z,98091.38
2022-11-14T10:38:32.447Z,98097.00
2022-11-14T10:41:41.911Z,98100.16
2022-11-14T10:44:32.980Z,98092.97
2022-11-14T10:47:24.198Z,98082.31
2022-11-14T10:51:02.025Z,98085.84
2022-11-14T10:53:54.093Z,98078.72
2022-11-14T10:56:51.771Z,98081.59
2022-11-14T10:59:37.705Z,98067.03
2022-11-14T11:02:23.940Z,98079.13
2022-11-14T11:05:17.118Z,98078.00
2022-11-14T11:11:30.055Z,98080.34
2022-11-14T11:14:19.772Z,98074.59
2022-11-14T11:17:29.510Z,98066.28
2022-11-14T11:20:36.422Z,98055.28
2022-11-14T11:23:27.588Z,98054.16
2022-11-14T11:26:32.734Z,98046.81
2022-11-14T11:29:20.166Z,98050.63
2022-11-14T11:32:06.885Z,98052.78
2022-11-14T11:34:52.926Z,98042.69
2022-11-14T11:37:55.206Z,98046.09
2022-11-14T11:40:43.743Z,98032.72
2022-11-14T11:44:04.671Z,98047.81
2022-11-14T11:47:03.356Z,98049.66
2022-11-14T11:49:54.253Z,98040.25
2022-11-14T11:53:10.853Z,98038.34
2022-11-14T11:56:25.900Z,98037.44
2022-11-14T11:59:33.612Z,98028.44
2022-11-14T12:02:27.191Z,98024.09
2022-11-14T12:05:57.502Z,98030.34
2022-11-14T12:09:21.955Z,98018.50
2022-11-14T12:12:22.640Z,98022.84
2022-11-14T12:15:32.395Z,98026.50
2022-11-14T12:18:37.953Z,98029.63
2022-11-14T12:21:32.324Z,98012.66
2022-11-14T12:25:04.465Z,98017.56
2022-11-14T12:28:24.909Z,98020.81
2022-11-14T12:31:14.317Z,98023.69
2022-11-14T12:34:05.899Z,98012.22
2022-11-14T12:36:52.279Z,98022.41
2022-11-14T12:39:38.588Z,98005.66
2022-11-14T12:42:24.857Z,98016.09
2022-11-14T12:45:41.254Z,98017.97
2022-11-14T12:48:27.099Z,98015.72
2022-11-14T12:51:25.066Z,98024.91
2022-11-14T12:54:45.481Z,98011.50
2022-11-14T12:57:49.139Z,98017.56
2022-11-14T13:00:46.467Z,98003.03
2022-11-14T13:04:08.145Z,98016.44
2022-11-14T13:07:20.789Z,98009.31
2022-11-14T13:10:30.581Z,98008.31
2022-11-14T13:13:36.164Z,97997.41
2022-11-14T13:16:45.405Z,98001.97
2022-11-14T13:19:49.929Z,97986.19
2022-11-14T13:22:41.038Z,97983.66
2022-11-14T13:25:27.369Z,97984.72
2022-11-14T13:28:52.508Z,97983.28
2022-11-14T13:31:49.150Z,97986.97
2022-11-14T13:34:54.064Z,97983.88
2022-11-14T13:38:13.774Z,97977.50
2022-11-14T13:41:27.253Z,97980.38
2022-11-14T13:44:34.331Z,97976.00
2022-11-14T13:47:58.266Z,97969.72
2022-11-14T13:50:51.214Z,97977.72
2022-11-14T13:53:39.178Z,97970.38
2022-11-14T13:57:02.235Z,97972.78
2022-11-14T14:00:20.875Z,97973.97
2022-11-14T14:03:41.956Z,97968.72
2022-11-14T14:07:10.443Z,97963.97
2022-11-14T14:10:34.460Z,97974.22
2022-11-14T14:13:29.147Z,97972.91
2022-11-14T14:16:40.318Z,97973.13
2022-11-14T14:19:53.855Z,97976.19
2022-11-14T14:22:57.512Z,97970.13
2022-11-14T14:26:13.257Z,97967.53
2022-11-14T14:29:19.768Z,97976.25
2022-11-14T14:32:19.961Z,97970.69
2022-11-14T14:35:29.619Z,97962.63
2022-11-14T14:38:25.969Z,97973.31
2022-11-14T14:41:14.395Z,97981.66
2022-11-14T14:44:00.433Z,97988.38
2022-11-14T14:46:46.344Z,97982.66
2022-11-14T14:49:37.111Z,97971.31
2022-11-14T14:52:36.885Z,97979.97
2022-11-14T14:55:35.497Z,97979.28
2022-11-14T14:58:28.239Z,97980.06
2022-11-14T15:01:29.061Z,97976.13
2022-11-14T15:04:17.574Z,97979.00
2022-11-14T15:07:04.122Z,97982.19
2022-11-14T15:09:59.588Z,97977.69
2022-11-14T15:12:48.627Z,97988.41
2022-11-14T15:15:35.348Z,97988.56
2022-11-14T15:18:30.704Z,97982.09
2022-11-14T15:21:25.227Z,97980.63
2022-11-14T15:24:22.086Z,97981.34
2022-11-14T15:27:20.160Z,97981.38
2022-11-14T15:30:20.727Z,97982.53
2022-11-14T15:33:27.243Z,97977.56
2022-11-14T15:36:19.382Z,97987.25
2022-11-14T15:39:24.143Z,97995.81
2022-11-14T15:42:19.712Z,97993.28
2022-11-14T15:45:21.483Z,97989.25
2022-11-14T15:48:15.794Z,97989.75
2022-11-14T15:51:01.656Z,97993.56
2022-11-14T15:53:49.696Z,97992.00
2022-11-14T15:56:38.448Z,97988.09
2022-11-14T15:59:25.017Z,97996.81
2022-11-14T16:02:34.625Z,97995.63
2022-11-14T16:05:27.801Z,97999.25
2022-11-14T16:08:14.081Z,98010.53
2022-11-14T16:10:59.596Z,98013.34
2022-11-14T16:13:45.326Z,98015.31
2022-11-14T16:16:31.191Z,98008.06
2022-11-14T16:19:17.205Z,98010.38
2022-11-14T16:22:11.130Z,98003.84
2022-11-14T16:24:57.106Z,98007.38
2022-11-14T16:27:43.478Z,98007.28
2022-11-14T16:30:28.883Z,98008.97
2022-11-14T16:33:14.738Z,98008.94
2022-11-14T16:36:01.094Z,98008.28
2022-11-14T16:38:51.080Z,98019.66
2022-11-14T16:41:38.010Z,98019.03
2022-11-14T16:44:24.853Z,98011.94
2022-11-14T16:47:14.661Z,98020.22
2022-11-14T16:50:02.644Z,98022.69
2022-11-14T16:52:48.367Z,98021.28
2022-11-14T16:55:33.785Z,98032.47
2022-11-14T16:58:19.214Z,98033.84
2022-11-14T17:01:10.076Z,98034.94
2022-11-14T17:04:01.829Z,98034.75
2022-11-14T17:06:47.895Z,98044.72
2022-11-14T17:09:33.837Z,98050.91
2022-11-14T17:12:20.110Z,98037.97
2022-11-14T17:15:06.480Z,98041.00
2022-11-14T17:17:52.172Z,98047.47
2022-11-14T17:20:41.944Z,98042.44
2022-11-14T17:23:27.358Z,98048.25
2022-11-14T17:26:13.784Z,98044.97
2022-11-14T17:28:59.645Z,98048.06
2022-11-14T17:31:47.136Z,98048.69
2022-11-14T17:34:33.060Z,98056.44
2022-11-14T17:37:18.537Z,98052.84
2022-11-14T17:40:06.861Z,98048.31
2022-11-14T17:42:55.001Z,98061.44
2022-11-14T17:45:41.434Z,98053.03
2022-11-14T17:48:27.817Z,98054.53
2022-11-14T17:51:15.787Z,98046.97
2022-11-14T17:54:01.072Z,98048.09
2022-11-14T17:56:50.948Z,98051.97
2022-11-14T17:59:41.316Z,98054.78
2022-11-14T18:02:27.243Z,98058.91
2022-11-14T18:05:12.612Z,98059.50
2022-11-14T18:07:58.202Z,98057.03
2022-11-14T18:10:44.030Z,98060.16
2022-11-14T18:13:29.853Z,98051.09
2022-11-14T18:16:19.661Z,98051.66
2022-11-14T18:19:05.538Z,98054.91
2022-11-14T18:21:53.949Z,98056.28
2022-11-14T18:24:43.312Z,98046.03
2022-11-14T18:27:29.143Z,98045.69
2022-11-14T18:30:39.684Z,98043.66
2022-11-14T18:33:20.562Z,98050.94
2022-11-14T18:36:11.716Z,98040.91
2022-11-14T18:38:58.058Z,98049.06
2022-11-14T18:41:43.980Z,98038.84
2022-11-14T18:44:30.169Z,98036.25
2022-11-14T18:47:16.029Z,98043.06
2022-11-14T18:50:03.893Z,98039.56
2022-11-14T18:52:49.512Z,98031.41
2022-11-14T18:55:40.483Z,98045.16
2022-11-14T18:58:25.959Z,98047.69
2022-11-14T19:01:23.966Z,98045.63
2022-11-14T19:04:11.844Z,98053.66
2022-11-14T19:06:57.655Z,98064.88
2022-11-14T19:09:44.532Z,98050.94
2022-11-14T19:12:30.548Z,98047.00
2022-11-14T19:15:16.755Z,98055.84
2022-11-14T19:18:02.652Z,98048.41
2022-11-14T19:21:03.484Z,98044.72
2022-11-14T19:23:50.497Z,98051.22
2022-11-14T19:26:36.843Z,98048.28
2022-11-14T19:29:22.775Z,98061.00
2022-11-14T19:32:08.579Z,98049.75
2022-11-14T19:34:55.163Z,98047.31
2022-11-14T19:37:41.143Z,98049.25
2022-11-14T19:40:27.976Z,98038.84
2022-11-14T19:43:13.499Z,98042.84
2022-11-14T19:46:06.263Z,98046.94
2022-11-14T19:48:59.809Z,98053.50
2022-11-14T19:51:45.669Z,98047.00
2022-11-14T19:54:31.425Z,98056.28
2022-11-14T19:57:17.431Z,98058.03
2022-11-14T20:00:04.175Z,98055.03
2022-11-14T20:02:49.886Z,98054.97
2022-11-14T20:05:35.557Z,98058.53
2022-11-14T20:08:21.305Z,98056.44
2022-11-14T20:11:06.919Z,98050.94
2022-11-14T20:13:52.520Z,98043.06
2022-11-14T20:16:38.550Z,98058.56
2022-11-14T20:19:24.162Z,98047.53
2022-11-14T20:22:10.278Z,98048.03
2022-11-14T20:24:56.134Z,98052.25
2022-11-14T20:27:41.837Z,98049.06
2022-11-14T20:30:27.611Z,98047.75
2022-11-14T20:33:14.339Z,98054.16
2022-11-14T20:36:11.500Z,98042.72
2022-11-14T20:38:58.478Z,98055.00
2022-11-14T20:41:43.812Z,98056.03
2022-11-14T20:44:29.864Z,98057.44
2022-11-14T20:47:17.500Z,98058.94
2022-11-14T20:50:03.537Z,98059.31
2022-11-14T20:52:49.433Z,98058.13
2022-11-14T20:55:35.187Z,98067.16
2022-11-14T20:58:21.106Z,98052.66
2022-11-14T21:01:07.324Z,98059.81
2022-11-14T21:03:53.217Z,98058.91
2022-11-14T21:06:38.939Z,98060.56
2022-11-14T21:09:24.790Z,98057.91
2022-11-14T21:12:10.597Z,98065.66
2022-11-14T21:14:56.625Z,98062.66
2022-11-14T21:17:42.737Z,98069.63
2022-11-14T21:20:28.821Z,98058.00
2022-11-14T21:23:14.880Z,98064.53
2022-11-14T21:26:18.690Z,98055.13
2022-11-14T21:29:13.325Z,98065.59
2022-11-14T21:31:59.375Z,98062.97
2022-11-14T21:34:45.386Z,98050.88
2022-11-14T21:37:31.264Z,98051.84
2022-11-14T21:40:17.487Z,98045.25
2022-11-14T21:43:03.734Z,98046.50
2022-11-14T21:46:02.596Z,98051.66
2022-11-14T21:48:49.447Z,98060.66
2022-11-14T21:51:34.976Z,98040.94
2022-11-14T21:54:20.969Z,98044.28
2022-11-14T21:57:10.308Z,98047.38
2022-11-14T21:59:56.402Z,98044.50
2022-11-14T22:03:00.294Z,98035.88
2022-11-14T22:05:46.435Z,98041.94
2022-11-14T22:08:32.333Z,98036.78
2022-11-14T22:11:18.241Z,98044.03
2022-11-14T22:14:04.167Z,98034.91
2022-11-14T22:16:50.083Z,98041.50
2022-11-14T22:19:36.137Z,98044.09
2022-11-14T22:22:22.362Z,98039.78
2022-11-14T22:25:09.064Z,98035.88
2022-11-14T22:27:55.159Z,98035.06
2022-11-14T22:30:41.275Z,98035.34
2022-11-14T22:33:33.304Z,98035.47
2022-11-14T22:36:23.369Z,98021.78
2022-11-14T22:39:09.301Z,98030.03
2022-11-14T22:41:55.075Z,98031.16
2022-11-14T22:44:40.414Z,98024.78
2022-11-14T22:47:26.334Z,98024.94
2022-11-14T22:50:12.085Z,98018.72
2022-11-14T22:52:58.021Z,98022.34
2022-11-14T22:55:48.567Z,98025.91
2022-11-14T22:58:37.438Z,98021.59
2022-11-14T23:01:29.856Z,98026.91
2022-11-14T23:04:15.527Z,98021.16
2022-11-14T23:07:01.698Z,98025.34
2022-11-14T23:09:48.120Z,98015.03
2022-11-14T23:12:34.114Z,98018.13
2022-11-14T23:15:19.928Z,98014.84
2022-11-14T23:18:06.916Z,98014.75
2022-11-14T23:20:52.819Z,98022.69
2022-11-14T23:23:39.257Z,98014.78
2022-11-14T23:26:27.513Z,98014.66
2022-11-14T23:29:14.383Z,98024.03
2022-11-14T23:32:00.393Z,98025.16
2022-11-14T23:34:46.567Z,98016.03
2022-11-14T23:37:32.669Z,98009.34
2022-11-14T23:40:18.460Z,98007.13
2022-11-14T23:43:04.272Z,98005.88
2022-11-14T23:45:50.417Z,97999.38
2022-11-14T23:48:36.331Z,97988.50
2022-11-14T23:51:22.186Z,97987.78
2022-11-14T23:54:08.257Z,97993.88
2022-11-14T23:56:53.865Z,97985.97
2022-11-14T23:59:39.311Z,97989.78
